createdAt,value
2022-08-29T00:04:22.720Z,19.99
2022-08-29T00:09:24.109Z,19.94
2022-08-29T00:14:25.456Z,19.89
2022-08-29T00:19:27.536Z,19.75
2022-08-29T00:24:28.986Z,19.82
2022-08-29T00:29:30.290Z,19.83
2022-08-29T00:34:31.588Z,19.77
2022-08-29T00:39:33.050Z,19.71
2022-08-29T00:44:34.574Z,19.64
2022-08-29T00:49:49.621Z,19.57
2022-08-29T00:54:53.714Z,19.51
2022-08-29T00:59:55.242Z,19.49
2022-08-29T01:04:57.769Z,19.49
2022-08-29T01:09:59.238Z,19.39
2022-08-29T01:15:09.711Z,19.31
2022-08-29T01:20:32.518Z,19.26
2022-08-29T01:25:39.231Z,19.15
2022-08-29T01:31:00.654Z,19.12
2022-08-29T01:36:02.187Z,19.07
2022-08-29T01:41:04.415Z,19.01
2022-08-29T01:46:05.756Z,18.96
2022-08-29T01:51:08.185Z,18.90
2022-08-29T01:56:29.781Z,18.95
2022-08-29T02:01:33.737Z,18.84
2022-08-29T02:06:36.699Z,18.83
2022-08-29T02:11:39.762Z,18.81
2022-08-29T02:16:41.247Z,18.73
2022-08-29T02:21:43.230Z,18.69
2022-08-29T02:26:44.876Z,18.63
2022-08-29T02:31:46.440Z,18.62
2022-08-29T02:36:49.151Z,18.47
2022-08-29T02:41:50.709Z,18.49
2022-08-29T02:46:52.093Z,18.40
2022-08-29T02:51:53.447Z,18.31
2022-08-29T02:56:54.871Z,18.26
2022-08-29T03:01:56.529Z,18.19
2022-08-29T03:06:57.922Z,18.09
2022-08-29T03:11:59.434Z,17.92
2022-08-29T03:17:01.689Z,17.94
2022-08-29T03:22:03.022Z,17.88
2022-08-29T03:27:04.585Z,17.81
2022-08-29T03:32:06.049Z,17.83
2022-08-29T03:37:07.422Z,17.79
2022-08-29T03:42:08.839Z,17.75
2022-08-29T03:47:10.256Z,17.65
2022-08-29T03:52:11.884Z,17.62
2022-08-29T03:57:13.226Z,17.56
2022-08-29T04:02:15.530Z,17.49
2022-08-29T04:07:17.599Z,17.54
2022-08-29T04:12:18.973Z,17.56
2022-08-29T04:17:20.312Z,17.56
2022-08-29T04:22:21.638Z,17.43
2022-08-29T04:27:23.087Z,17.39
2022-08-29T04:32:24.495Z,17.28
2022-08-29T04:37:26.112Z,17.27
2022-08-29T04:42:27.552Z,17.21
2022-08-29T04:47:28.838Z,17.07
2022-08-29T04:52:30.143Z,17.11
2022-08-29T04:57:31.740Z,17.07
2022-08-29T05:02:33.146Z,16.91
2022-08-29T05:07:35.060Z,16.93
2022-08-29T05:12:40.023Z,16.96
2022-08-29T05:17:41.732Z,16.94
2022-08-29T05:22:43.220Z,17.03
2022-08-29T05:27:44.612Z,17.04
2022-08-29T05:32:46.039Z,17.07
2022-08-29T05:37:47.569Z,17.20
2022-08-29T05:42:49.532Z,17.25
2022-08-29T05:47:50.956Z,17.22
2022-08-29T05:52:52.267Z,17.31
2022-08-29T05:57:54.428Z,17.37
2022-08-29T06:02:55.908Z,17.45
2022-08-29T06:07:57.390Z,17.53
2022-08-29T06:12:59.137Z,17.76
2022-08-29T06:18:00.627Z,17.91
2022-08-29T06:23:02.028Z,18.12
2022-08-29T06:28:03.660Z,18.25
2022-08-29T06:33:05.016Z,18.39
2022-08-29T06:38:10.755Z,18.61
2022-08-29T06:43:14.681Z,18.77
2022-08-29T06:48:16.379Z,18.94
2022-08-29T06:53:27.526Z,19.07
2022-08-29T06:58:34.984Z,19.06
2022-08-29T07:03:36.684Z,19.20
2022-08-29T07:08:43.627Z,19.37
2022-08-29T07:13:57.065Z,19.64
2022-08-29T07:18:58.770Z,19.89
2022-08-29T07:24:00.212Z,20.12
2022-08-29T07:29:05.543Z,20.42
2022-08-29T07:34:07.545Z,20.69
2022-08-29T07:39:13.154Z,20.89
2022-08-29T07:44:15.137Z,20.99
2022-08-29T07:49:16.467Z,21.42
2022-08-29T07:54:18.806Z,21.66
2022-08-29T07:59:21.753Z,21.68
2022-08-29T08:04:23.056Z,21.75
2022-08-29T08:09:25.732Z,22.05
2022-08-29T08:14:34.574Z,22.29
2022-08-29T08:19:37.790Z,22.77
2022-08-29T08:24:39.122Z,23.04
2022-08-29T08:29:40.460Z,23.05
2022-08-29T08:34:43.006Z,23.29
2022-08-29T08:39:44.516Z,23.36
2022-08-29T08:45:17.283Z,23.48
2022-08-29T08:50:34.763Z,23.49
2022-08-29T08:55:42.623Z,23.26
2022-08-29T09:00:55.155Z,23.62
2022-08-29T09:06:10.306Z,23.83
2022-08-29T09:11:45.197Z,23.94
2022-08-29T09:16:51.080Z,23.94
2022-08-29T09:21:55.295Z,24.21
2022-08-29T09:26:56.629Z,24.76
2022-08-29T09:32:17.732Z,25.58
2022-08-29T09:37:26.623Z,25.93
2022-08-29T09:42:37.993Z,26.27
2022-08-29T09:47:39.607Z,26.15
2022-08-29T09:53:01.284Z,26.17
2022-08-29T09:58:17.277Z,26.54
2022-08-29T10:03:22.357Z,27.27
2022-08-29T10:08:34.927Z,27.75
2022-08-29T10:13:47.175Z,28.16
2022-08-29T10:18:57.907Z,28.89
2022-08-29T10:24:31.034Z,32.76
2022-08-29T10:29:44.583Z,34.66
2022-08-29T10:35:29.904Z,34.53
2022-08-29T10:40:49.625Z,31.51
2022-08-29T10:46:15.922Z,32.11
2022-08-29T10:51:42.896Z,35.38
2022-08-29T10:56:48.272Z,37.07
2022-08-29T11:01:57.192Z,39.83
2022-08-29T11:07:07.706Z,39.93
2022-08-29T11:12:34.775Z,41.08
2022-08-29T11:17:40.774Z,41.63
2022-08-29T11:23:02.032Z,41.84
2022-08-29T11:28:23.627Z,40.25
2022-08-29T11:33:43.392Z,40.71
2022-08-29T11:39:15.939Z,39.17
2022-08-29T11:44:35.713Z,38.84
2022-08-29T11:49:46.768Z,39.97
2022-08-29T11:54:54.213Z,40.68
2022-08-29T11:59:57.725Z,43.05
2022-08-29T12:05:20.491Z,42.44
2022-08-29T12:10:24.470Z,43.25
2022-08-29T12:15:41.827Z,41.41
2022-08-29T12:20:46.515Z,41.21
2022-08-29T12:26:09.599Z,39.43
2022-08-29T12:31:51.288Z,36.94
2022-08-29T12:37:27.426Z,35.88
2022-08-29T12:42:38.066Z,35.29
2022-08-29T12:47:54.389Z,35.00
2022-08-29T12:53:23.207Z,34.92
2022-08-29T12:58:44.782Z,34.53
2022-08-29T13:04:05.476Z,34.07
2022-08-29T13:09:07.512Z,33.55
2022-08-29T13:14:11.888Z,33.17
2022-08-29T13:19:21.573Z,32.28
2022-08-29T13:24:22.997Z,32.40
2022-08-29T13:34:36.428Z,31.78
2022-08-29T13:39:41.802Z,31.69
2022-08-29T13:44:49.461Z,31.26
2022-08-29T13:49:55.961Z,30.87
2022-08-29T13:54:57.645Z,30.84
2022-08-29T13:59:59.120Z,30.61
2022-08-29T14:05:01.775Z,30.23
2022-08-29T14:10:06.118Z,30.14
2022-08-29T14:15:10.026Z,30.10
2022-08-29T14:20:12.780Z,30.00
2022-08-29T14:25:17.068Z,29.74
2022-08-29T14:30:20.943Z,29.45
2022-08-29T14:35:26.578Z,29.11
2022-08-29T14:40:33.993Z,28.77
2022-08-29T14:45:35.334Z,28.50
2022-08-29T14:50:36.668Z,28.35
2022-08-29T14:55:38.033Z,28.24
2022-08-29T15:00:39.385Z,27.99
2022-08-29T15:05:42.630Z,27.70
2022-08-29T15:10:46.215Z,27.72
2022-08-29T15:15:47.621Z,27.56
2022-08-29T15:20:49.337Z,27.48
2022-08-29T15:25:51.712Z,27.31
2022-08-29T15:30:53.459Z,27.36
2022-08-29T15:35:54.837Z,27.03
2022-08-29T15:40:56.269Z,27.11
2022-08-29T15:45:59.744Z,27.04
2022-08-29T15:51:01.293Z,27.06
2022-08-29T15:56:02.748Z,26.99
2022-08-29T16:01:05.161Z,26.95
2022-08-29T16:06:06.736Z,26.90
2022-08-29T16:11:08.044Z,26.80
2022-08-29T16:16:09.375Z,26.78
2022-08-29T16:21:10.913Z,26.71
2022-08-29T16:26:12.546Z,26.63
2022-08-29T16:31:14.733Z,26.62
2022-08-29T16:36:17.855Z,26.56
2022-08-29T16:41:20.386Z,26.40
2022-08-29T16:46:24.615Z,26.32
2022-08-29T16:51:27.602Z,26.24
2022-08-29T16:56:28.941Z,26.16
2022-08-29T17:01:35.512Z,26.11
2022-08-29T17:06:37.022Z,26.04
2022-08-29T17:11:38.722Z,25.94
2022-08-29T17:16:42.451Z,25.91
2022-08-29T17:21:44.484Z,25.77
2022-08-29T17:26:47.857Z,25.59
2022-08-29T17:31:49.342Z,25.48
2022-08-29T17:36:50.639Z,25.32
2022-08-29T17:41:52.416Z,25.16
2022-08-29T17:46:53.779Z,25.11
2022-08-29T17:51:56.429Z,24.95
2022-08-29T17:56:59.918Z,24.89
2022-08-29T18:02:02.485Z,24.79
2022-08-29T18:07:04.109Z,24.69
2022-08-29T18:12:05.959Z,24.58
2022-08-29T18:17:07.711Z,24.49
2022-08-29T18:22:09.200Z,24.44
2022-08-29T18:27:10.562Z,24.33
2022-08-29T18:32:11.976Z,24.27
2022-08-29T18:37:13.863Z,24.16
2022-08-29T18:42:36.716Z,24.07
2022-08-29T18:47:37.136Z,23.98
2022-08-29T18:52:38.458Z,23.89
2022-08-29T18:57:39.792Z,23.76
2022-08-29T19:02:41.310Z,23.71
2022-08-29T19:07:42.753Z,23.69
2022-08-29T19:12:44.140Z,23.67
2022-08-29T19:17:48.462Z,23.63
2022-08-29T19:22:50.201Z,23.55
2022-08-29T19:27:51.666Z,23.45
2022-08-29T19:32:56.476Z,23.41
2022-08-29T19:37:57.875Z,23.39
2022-08-29T19:43:00.434Z,23.28
2022-08-29T19:48:02.014Z,23.27
2022-08-29T19:53:03.370Z,23.14
2022-08-29T19:58:05.370Z,23.10
2022-08-29T20:03:07.733Z,23.05
2022-08-29T20:08:09.120Z,23.03
2022-08-29T20:13:11.419Z,23.01
2022-08-29T20:18:13.480Z,22.93
2022-08-29T20:23:14.941Z,22.87
2022-08-29T20:28:16.631Z,22.77
2022-08-29T20:33:18.625Z,22.75
2022-08-29T20:38:20.064Z,22.66
2022-08-29T20:43:21.411Z,22.57
2022-08-29T20:48:22.774Z,22.50
2022-08-29T20:53:31.549Z,22.37
2022-08-29T20:58:34.476Z,22.28
2022-08-29T21:03:54.586Z,22.19
2022-08-29T21:08:55.878Z,22.16
2022-08-29T21:13:57.528Z,22.21
2022-08-29T21:18:58.833Z,22.20
2022-08-29T21:24:01.150Z,22.16
2022-08-29T21:29:04.581Z,22.09
2022-08-29T21:34:07.460Z,22.06
2022-08-29T21:39:11.244Z,22.02
2022-08-29T21:44:14.874Z,21.94
2022-08-29T21:49:19.204Z,21.83
2022-08-29T21:54:20.548Z,21.81
2022-08-29T21:59:22.009Z,21.78
2022-08-29T22:04:28.661Z,21.74
2022-08-29T22:09:30.653Z,21.60
2022-08-29T22:14:50.689Z,21.51
2022-08-29T22:19:52.001Z,21.42
2022-08-29T22:24:53.374Z,21.38
2022-08-29T22:29:54.877Z,21.23
2022-08-29T22:34:56.196Z,21.23
2022-08-29T22:39:57.623Z,21.23
2022-08-29T22:45:03.648Z,21.18
2022-08-29T22:50:09.093Z,21.17
2022-08-29T22:55:13.802Z,21.09
2022-08-29T23:00:21.565Z,21.02
2022-08-29T23:05:24.746Z,20.95
2022-08-29T23:10:26.090Z,20.88
2022-08-29T23:15:27.581Z,20.76
2022-08-29T23:20:29.656Z,20.83
2022-08-29T23:25:30.990Z,20.88
2022-08-29T23:30:32.667Z,20.82
2022-08-29T23:35:33.977Z,20.79
2022-08-29T23:40:36.362Z,20.71
2022-08-29T23:45:38.300Z,20.62
2022-08-29T23:50:39.826Z,20.53
2022-08-29T23:55:41.597Z,20.44
